sensor_id;sensor_type;location;lat;lon;timestamp;pressure;altitude;pressure_sealevel;temperature;humidity
55347;BME280;41218;55.700;38.270;2023-03-14T00:04:33;99694.56;;;-5.68;69.42
55347;BME280;41218;55.700;38.270;2023-03-14T00:09:52;99678.19;;;-5.61;68.92
55347;BME280;41218;55.700;38.270;2023-03-14T00:15:12;99670.13;;;-5.56;69.16
55347;BME280;41218;55.700;38.270;2023-03-14T00:20:31;99650.75;;;-5.53;69.63
55347;BME280;41218;55.700;38.270;2023-03-14T00:25:50;99644.56;;;-5.44;69.58
55347;BME280;41218;55.700;38.270;2023-03-14T00:31:11;99623.84;;;-5.43;69.33
55347;BME280;41218;55.700;38.270;2023-03-14T00:36:31;99618.44;;;-5.38;69.43
55347;BME280;41218;55.700;38.270;2023-03-14T00:41:50;99609.28;;;-5.42;69.04
55347;BME280;41218;55.700;38.270;2023-03-14T00:47:08;99593.38;;;-5.44;69.13
55347;BME280;41218;55.700;38.270;2023-03-14T00:52:27;99602.84;;;-5.31;69.32
55347;BME280;41218;55.700;38.270;2023-03-14T00:57:28;99599.59;;;-5.22;69.24
55347;BME280;41218;55.700;38.270;2023-03-14T01:02:28;99617.38;;;-5.16;69.61
55347;BME280;41218;55.700;38.270;2023-03-14T01:07:29;99609.03;;;-5.15;69.06
55347;BME280;41218;55.700;38.270;2023-03-14T01:12:30;99599.59;;;-5.12;69.18
55347;BME280;41218;55.700;38.270;2023-03-14T01:17:30;99577.75;;;-5.06;69.34
55347;BME280;41218;55.700;38.270;2023-03-14T01:22:49;99571.28;;;-4.99;69.32
55347;BME280;41218;55.700;38.270;2023-03-14T01:28:08;99578.03;;;-4.92;69.62
55347;BME280;41218;55.700;38.270;2023-03-14T01:33:27;99558.06;;;-4.86;69.96
55347;BME280;41218;55.700;38.270;2023-03-14T01:38:38;99568.28;;;-4.77;69.84
55347;BME280;41218;55.700;38.270;2023-03-14T01:43:39;99561.28;;;-4.73;69.80
55347;BME280;41218;55.700;38.270;2023-03-14T01:48:59;99521.09;;;-4.70;70.01
55347;BME280;41218;55.700;38.270;2023-03-14T01:54:10;99507.84;;;-4.56;70.07
55347;BME280;41218;55.700;38.270;2023-03-14T01:59:12;99493.78;;;-4.48;70.26
55347;BME280;41218;55.700;38.270;2023-03-14T02:04:12;99504.00;;;-4.45;70.38
55347;BME280;41218;55.700;38.270;2023-03-14T02:09:14;99496.16;;;-4.36;70.23
55347;BME280;41218;55.700;38.270;2023-03-14T02:14:25;99492.88;;;-4.28;70.44
55347;BME280;41218;55.700;38.270;2023-03-14T02:25:08;99476.56;;;-4.12;70.99
55347;BME280;41218;55.700;38.270;2023-03-14T02:30:18;99476.25;;;-4.06;71.05
55347;BME280;41218;55.700;38.270;2023-03-14T02:35:21;99465.44;;;-4.00;70.92
55347;BME280;41218;55.700;38.270;2023-03-14T02:40:23;99427.88;;;-3.97;71.22
55347;BME280;41218;55.700;38.270;2023-03-14T02:50:26;99412.06;;;-3.79;70.93
55347;BME280;41218;55.700;38.270;2023-03-14T02:55:29;99357.84;;;-3.83;70.84
55347;BME280;41218;55.700;38.270;2023-03-14T03:00:30;99369.81;;;-3.65;71.84
55347;BME280;41218;55.700;38.270;2023-03-14T03:05:31;99371.94;;;-3.62;71.76
55347;BME280;41218;55.700;38.270;2023-03-14T03:10:32;99349.47;;;-3.57;72.71
55347;BME280;41218;55.700;38.270;2023-03-14T03:15:33;99357.72;;;-3.44;72.48
55347;BME280;41218;55.700;38.270;2023-03-14T03:20:34;99371.13;;;-3.33;72.59
55347;BME280;41218;55.700;38.270;2023-03-14T03:25:34;99372.66;;;-3.27;72.57
55347;BME280;41218;55.700;38.270;2023-03-14T03:30:39;99362.34;;;-3.20;72.96
55347;BME280;41218;55.700;38.270;2023-03-14T03:35:48;99334.84;;;-3.08;72.71
55347;BME280;41218;55.700;38.270;2023-03-14T03:40:49;99332.09;;;-3.03;73.68
55347;BME280;41218;55.700;38.270;2023-03-14T03:45:49;99327.38;;;-2.92;73.37
55347;BME280;41218;55.700;38.270;2023-03-14T03:50:50;99319.94;;;-2.82;72.99
55347;BME280;41218;55.700;38.270;2023-03-14T03:55:50;99318.16;;;-2.72;73.01
55347;BME280;41218;55.700;38.270;2023-03-14T04:00:51;99296.97;;;-2.65;73.50
55347;BME280;41218;55.700;38.270;2023-03-14T04:06:04;99290.09;;;-2.57;74.23
55347;BME280;41218;55.700;38.270;2023-03-14T04:11:05;99288.84;;;-2.46;73.63
55347;BME280;41218;55.700;38.270;2023-03-14T04:16:14;99285.75;;;-2.39;74.00
55347;BME280;41218;55.700;38.270;2023-03-14T04:21:16;99283.69;;;-2.29;73.26
55347;BME280;41218;55.700;38.270;2023-03-14T04:26:17;99265.16;;;-2.22;74.08
55347;BME280;41218;55.700;38.270;2023-03-14T04:31:20;99263.66;;;-2.14;74.35
55347;BME280;41218;55.700;38.270;2023-03-14T04:36:20;99239.91;;;-2.03;74.04
55347;BME280;41218;55.700;38.270;2023-03-14T04:41:21;99243.84;;;-1.95;74.36
55347;BME280;41218;55.700;38.270;2023-03-14T04:46:22;99247.47;;;-1.86;73.90
55347;BME280;41218;55.700;38.270;2023-03-14T04:51:22;99224.09;;;-1.82;75.17
55347;BME280;41218;55.700;38.270;2023-03-14T04:56:23;99229.31;;;-1.72;74.19
55347;BME280;41218;55.700;38.270;2023-03-14T05:01:24;99212.66;;;-1.65;75.03
55347;BME280;41218;55.700;38.270;2023-03-14T05:06:24;99200.31;;;-1.57;74.88
55347;BME280;41218;55.700;38.270;2023-03-14T05:11:25;99190.03;;;-1.47;75.08
55347;BME280;41218;55.700;38.270;2023-03-14T05:16:25;99176.69;;;-1.43;75.21
55347;BME280;41218;55.700;38.270;2023-03-14T05:21:26;99182.09;;;-1.29;75.20
55347;BME280;41218;55.700;38.270;2023-03-14T05:26:26;99175.31;;;-1.18;75.06
55347;BME280;41218;55.700;38.270;2023-03-14T05:31:27;99168.13;;;-1.00;75.05
55347;BME280;41218;55.700;38.270;2023-03-14T05:36:27;99138.97;;;-0.94;74.78
55347;BME280;41218;55.700;38.270;2023-03-14T05:41:28;99172.47;;;-0.76;74.96
55347;BME280;41218;55.700;38.270;2023-03-14T05:46:29;99166.66;;;-0.61;74.39
55347;BME280;41218;55.700;38.270;2023-03-14T05:51:32;99150.59;;;-0.49;74.64
55347;BME280;41218;55.700;38.270;2023-03-14T05:56:33;99155.28;;;-0.41;74.54
55347;BME280;41218;55.700;38.270;2023-03-14T06:01:34;99168.75;;;-0.27;74.68
55347;BME280;41218;55.700;38.270;2023-03-14T06:06:34;99166.22;;;-0.23;74.35
55347;BME280;41218;55.700;38.270;2023-03-14T06:11:35;99175.22;;;-0.14;73.98
55347;BME280;41218;55.700;38.270;2023-03-14T06:16:35;99189.16;;;-0.07;74.11
55347;BME280;41218;55.700;38.270;2023-03-14T06:21:36;99185.53;;;0.07;73.88
55347;BME280;41218;55.700;38.270;2023-03-14T06:26:36;99174.50;;;0.12;73.97
55347;BME280;41218;55.700;38.270;2023-03-14T06:31:37;99168.78;;;0.22;73.53
55347;BME280;41218;55.700;38.270;2023-03-14T06:36:37;99158.44;;;0.33;73.76
55347;BME280;41218;55.700;38.270;2023-03-14T06:41:38;99151.88;;;0.34;73.51
55347;BME280;41218;55.700;38.270;2023-03-14T06:46:38;99132.38;;;0.40;73.65
55347;BME280;41218;55.700;38.270;2023-03-14T06:51:39;99123.13;;;0.42;73.54
55347;BME280;41218;55.700;38.270;2023-03-14T06:56:40;99126.50;;;0.56;73.76
55347;BME280;41218;55.700;38.270;2023-03-14T07:01:40;99114.81;;;0.64;73.04
55347;BME280;41218;55.700;38.270;2023-03-14T07:06:41;99114.81;;;0.73;73.05
55347;BME280;41218;55.700;38.270;2023-03-14T07:11:44;99104.44;;;0.84;73.00
55347;BME280;41218;55.700;38.270;2023-03-14T07:16:45;99105.22;;;0.93;72.83
55347;BME280;41218;55.700;38.270;2023-03-14T07:21:45;99114.34;;;1.06;72.52
55347;BME280;41218;55.700;38.270;2023-03-14T07:26:46;99101.66;;;1.18;72.68
55347;BME280;41218;55.700;38.270;2023-03-14T07:31:46;99111.91;;;1.30;72.58
55347;BME280;41218;55.700;38.270;2023-03-14T07:36:47;99117.47;;;1.43;72.60
55347;BME280;41218;55.700;38.270;2023-03-14T07:41:47;99111.50;;;1.58;72.18
55347;BME280;41218;55.700;38.270;2023-03-14T07:46:48;99124.75;;;1.77;72.05
55347;BME280;41218;55.700;38.270;2023-03-14T07:51:48;99130.78;;;1.91;71.48
55347;BME280;41218;55.700;38.270;2023-03-14T07:56:49;99127.00;;;2.05;71.28
55347;BME280;41218;55.700;38.270;2023-03-14T08:01:49;99130.03;;;2.12;71.13
55347;BME280;41218;55.700;38.270;2023-03-14T08:06:50;99129.66;;;2.22;70.83
55347;BME280;41218;55.700;38.270;2023-03-14T08:11:50;99124.28;;;2.34;70.89
55347;BME280;41218;55.700;38.270;2023-03-14T08:16:51;99134.66;;;2.41;70.41
55347;BME280;41218;55.700;38.270;2023-03-14T08:21:52;99140.75;;;2.47;70.29
55347;BME280;41218;55.700;38.270;2023-03-14T08:26:53;99136.38;;;2.54;70.10
55347;BME280;41218;55.700;38.270;2023-03-14T08:31:53;99133.31;;;2.56;69.93
55347;BME280;41218;55.700;38.270;2023-03-14T08:36:54;99143.50;;;2.68;70.07
55347;BME280;41218;55.700;38.270;2023-03-14T08:41:56;99162.72;;;2.71;69.88
55347;BME280;41218;55.700;38.270;2023-03-14T08:46:57;99162.41;;;2.73;69.40
55347;BME280;41218;55.700;38.270;2023-03-14T08:51:57;99168.00;;;2.76;69.68
55347;BME280;41218;55.700;38.270;2023-03-14T08:56:58;99158.66;;;2.77;69.42
55347;BME280;41218;55.700;38.270;2023-03-14T09:01:59;99161.47;;;2.90;69.48
55347;BME280;41218;55.700;38.270;2023-03-14T09:07:03;99162.66;;;3.01;68.92
55347;BME280;41218;55.700;38.270;2023-03-14T09:12:04;99134.78;;;2.95;68.68
55347;BME280;41218;55.700;38.270;2023-03-14T09:17:05;99154.41;;;3.10;68.95
55347;BME280;41218;55.700;38.270;2023-03-14T09:22:06;99149.53;;;3.15;68.42
55347;BME280;41218;55.700;38.270;2023-03-14T09:27:07;99140.78;;;3.22;68.69
55347;BME280;41218;55.700;38.270;2023-03-14T09:32:07;99091.97;;;3.08;67.73
55347;BME280;41218;55.700;38.270;2023-03-14T09:37:08;99114.41;;;3.26;68.17
55347;BME280;41218;55.700;38.270;2023-03-14T09:42:13;99131.66;;;3.39;67.53
55347;BME280;41218;55.700;38.270;2023-03-14T09:47:16;99122.78;;;3.42;67.45
55347;BME280;41218;55.700;38.270;2023-03-14T09:52:33;99123.25;;;3.56;67.23
55347;BME280;41218;55.700;38.270;2023-03-14T09:57:36;99140.28;;;3.74;66.79
55347;BME280;41218;55.700;38.270;2023-03-14T10:02:36;99140.16;;;3.83;66.45
55347;BME280;41218;55.700;38.270;2023-03-14T10:07:38;99133.00;;;3.91;66.13
55347;BME280;41218;55.700;38.270;2023-03-14T10:12:38;99140.41;;;4.03;66.35
55347;BME280;41218;55.700;38.270;2023-03-14T10:17:44;99123.69;;;4.16;66.16
55347;BME280;41218;55.700;38.270;2023-03-14T10:22:50;99127.06;;;4.26;65.69
55347;BME280;41218;55.700;38.270;2023-03-14T10:27:51;99098.94;;;4.25;65.26
55347;BME280;41218;55.700;38.270;2023-03-14T10:32:52;99099.94;;;4.33;65.42
55347;BME280;41218;55.700;38.270;2023-03-14T10:37:56;99086.06;;;4.38;65.17
55347;BME280;41218;55.700;38.270;2023-03-14T10:42:59;99091.06;;;4.48;64.88
55347;BME280;41218;55.700;38.270;2023-03-14T10:48:19;99081.31;;;4.63;63.88
55347;BME280;41218;55.700;38.270;2023-03-14T10:53:21;99094.41;;;4.70;63.83
55347;BME280;41218;55.700;38.270;2023-03-14T10:58:24;99096.34;;;4.69;64.28
55347;BME280;41218;55.700;38.270;2023-03-14T11:03:26;99101.00;;;4.81;63.99
55347;BME280;41218;55.700;38.270;2023-03-14T11:08:45;99091.72;;;4.86;62.40
55347;BME280;41218;55.700;38.270;2023-03-14T11:29:40;99082.91;;;5.20;63.00
55347;BME280;41218;55.700;38.270;2023-03-14T11:34:50;99092.03;;;5.25;62.44
55347;BME280;41218;55.700;38.270;2023-03-14T11:40:18;99079.66;;;5.31;61.76
55347;BME280;41218;55.700;38.270;2023-03-14T11:45:24;99089.06;;;5.46;62.71
55347;BME280;41218;55.700;38.270;2023-03-14T11:50:29;99096.22;;;5.50;62.08
55347;BME280;41218;55.700;38.270;2023-03-14T11:55:33;99101.72;;;5.50;61.87
55347;BME280;41218;55.700;38.270;2023-03-14T12:00:35;99098.53;;;5.48;61.75
55347;BME280;41218;55.700;38.270;2023-03-14T12:05:59;99102.41;;;5.47;60.66
55347;BME280;41218;55.700;38.270;2023-03-14T12:11:08;99110.44;;;5.40;61.59
55347;BME280;41218;55.700;38.270;2023-03-14T12:21:44;99123.88;;;5.29;60.56
55347;BME280;41218;55.700;38.270;2023-03-14T12:26:53;99127.63;;;5.25;61.17
55347;BME280;41218;55.700;38.270;2023-03-14T12:37:23;99149.56;;;5.25;60.29
55347;BME280;41218;55.700;38.270;2023-03-14T12:52:49;99130.38;;;4.96;59.10
55347;BME280;41218;55.700;38.270;2023-03-14T13:03:54;99165.06;;;4.92;60.84
55347;BME280;41218;55.700;38.270;2023-03-14T13:08:55;99156.88;;;4.80;60.51
55347;BME280;41218;55.700;38.270;2023-03-14T13:13:58;99158.84;;;4.79;60.71
55347;BME280;41218;55.700;38.270;2023-03-14T13:19:17;99148.94;;;4.75;60.60
55347;BME280;41218;55.700;38.270;2023-03-14T13:24:25;99146.16;;;4.87;60.70
55347;BME280;41218;55.700;38.270;2023-03-14T13:29:28;99150.94;;;4.90;60.99
55347;BME280;41218;55.700;38.270;2023-03-14T13:34:32;99164.53;;;4.87;61.30
55347;BME280;41218;55.700;38.270;2023-03-14T13:39:33;99156.31;;;4.74;61.64
55347;BME280;41218;55.700;38.270;2023-03-14T13:44:37;99141.88;;;4.61;62.09
55347;BME280;41218;55.700;38.270;2023-03-14T13:49:39;99136.41;;;4.49;62.22
55347;BME280;41218;55.700;38.270;2023-03-14T13:54:39;99151.03;;;4.41;62.83
55347;BME280;41218;55.700;38.270;2023-03-14T13:59:40;99142.25;;;4.23;62.77
55347;BME280;41218;55.700;38.270;2023-03-14T14:04:40;99146.81;;;4.19;62.56
55347;BME280;41218;55.700;38.270;2023-03-14T14:09:43;99149.78;;;4.14;62.74
55347;BME280;41218;55.700;38.270;2023-03-14T14:15:11;99141.13;;;4.12;62.32
55347;BME280;41218;55.700;38.270;2023-03-14T14:20:29;99141.00;;;4.08;62.12
55347;BME280;41218;55.700;38.270;2023-03-14T14:25:34;99149.19;;;4.08;62.40
55347;BME280;41218;55.700;38.270;2023-03-14T14:30:34;99138.47;;;4.03;62.34
55347;BME280;41218;55.700;38.270;2023-03-14T14:35:35;99146.91;;;3.98;62.13
55347;BME280;41218;55.700;38.270;2023-03-14T14:40:43;99158.19;;;3.96;62.08
55347;BME280;41218;55.700;38.270;2023-03-14T14:45:47;99169.00;;;3.93;61.85
55347;BME280;41218;55.700;38.270;2023-03-14T14:50:59;99179.59;;;3.94;61.97
55347;BME280;41218;55.700;38.270;2023-03-14T14:56:04;99177.44;;;3.88;61.88
55347;BME280;41218;55.700;38.270;2023-03-14T15:01:16;99188.69;;;3.86;62.13
55347;BME280;41218;55.700;38.270;2023-03-14T15:06:17;99188.81;;;3.77;62.30
55347;BME280;41218;55.700;38.270;2023-03-14T15:11:23;99183.88;;;3.71;61.82
55347;BME280;41218;55.700;38.270;2023-03-14T15:16:28;99194.00;;;3.70;61.90
55347;BME280;41218;55.700;38.270;2023-03-14T15:21:30;99191.16;;;3.67;62.11
55347;BME280;41218;55.700;38.270;2023-03-14T15:26:30;99190.34;;;3.66;62.32
55347;BME280;41218;55.700;38.270;2023-03-14T15:31:31;99184.75;;;3.63;62.36
55347;BME280;41218;55.700;38.270;2023-03-14T15:36:33;99177.72;;;3.61;62.34
55347;BME280;41218;55.700;38.270;2023-03-14T15:41:34;99172.34;;;3.53;62.32
55347;BME280;41218;55.700;38.270;2023-03-14T15:46:34;99192.41;;;3.57;62.31
55347;BME280;41218;55.700;38.270;2023-03-14T15:51:35;99198.31;;;3.59;62.55
55347;BME280;41218;55.700;38.270;2023-03-14T15:56:36;99209.59;;;3.57;62.33
55347;BME280;41218;55.700;38.270;2023-03-14T16:01:36;99185.06;;;3.49;62.06
55347;BME280;41218;55.700;38.270;2023-03-14T16:06:37;99199.78;;;3.56;61.89
55347;BME280;41218;55.700;38.270;2023-03-14T16:11:38;99209.13;;;3.55;62.17
55347;BME280;41218;55.700;38.270;2023-03-14T16:16:38;99205.59;;;3.55;62.17
55347;BME280;41218;55.700;38.270;2023-03-14T16:21:39;99215.25;;;3.52;61.86
55347;BME280;41218;55.700;38.270;2023-03-14T16:26:39;99202.88;;;3.55;62.07
55347;BME280;41218;55.700;38.270;2023-03-14T16:31:40;99203.84;;;3.50;61.63
55347;BME280;41218;55.700;38.270;2023-03-14T16:36:42;99209.31;;;3.50;61.67
55347;BME280;41218;55.700;38.270;2023-03-14T16:41:43;99217.66;;;3.54;61.98
55347;BME280;41218;55.700;38.270;2023-03-14T16:46:43;99224.91;;;3.50;61.93
55347;BME280;41218;55.700;38.270;2023-03-14T16:51:44;99215.94;;;3.49;61.94
55347;BME280;41218;55.700;38.270;2023-03-14T16:56:44;99240.72;;;3.44;61.42
55347;BME280;41218;55.700;38.270;2023-03-14T17:01:47;99237.06;;;3.40;61.87
55347;BME280;41218;55.700;38.270;2023-03-14T17:06:49;99255.06;;;3.41;61.69
55347;BME280;41218;55.700;38.270;2023-03-14T17:11:49;99260.25;;;3.34;61.66
55347;BME280;41218;55.700;38.270;2023-03-14T17:16:50;99246.44;;;3.30;61.49
55347;BME280;41218;55.700;38.270;2023-03-14T17:21:50;99258.19;;;3.31;61.55
55347;BME280;41218;55.700;38.270;2023-03-14T17:26:51;99245.03;;;3.24;61.62
55347;BME280;41218;55.700;38.270;2023-03-14T17:31:52;99250.25;;;3.17;61.59
55347;BME280;41218;55.700;38.270;2023-03-14T17:36:52;99252.78;;;3.22;61.61
55347;BME280;41218;55.700;38.270;2023-03-14T17:41:53;99254.84;;;3.25;61.41
55347;BME280;41218;55.700;38.270;2023-03-14T17:46:54;99256.44;;;3.26;61.38
55347;BME280;41218;55.700;38.270;2023-03-14T17:51:55;99255.50;;;3.22;61.49
55347;BME280;41218;55.700;38.270;2023-03-14T17:56:55;99257.13;;;3.23;60.99
55347;BME280;41218;55.700;38.270;2023-03-14T18:01:56;99250.72;;;3.19;61.30
55347;BME280;41218;55.700;38.270;2023-03-14T18:06:57;99239.00;;;3.18;61.18
55347;BME280;41218;55.700;38.270;2023-03-14T18:11:58;99242.53;;;3.19;61.13
55347;BME280;41218;55.700;38.270;2023-03-14T18:16:59;99255.84;;;3.20;61.05
55347;BME280;41218;55.700;38.270;2023-03-14T18:22:00;99259.84;;;3.23;61.15
55347;BME280;41218;55.700;38.270;2023-03-14T18:27:00;99270.63;;;3.19;60.62
55347;BME280;41218;55.700;38.270;2023-03-14T18:32:01;99268.59;;;3.16;60.97
55347;BME280;41218;55.700;38.270;2023-03-14T18:37:02;99265.72;;;3.13;60.74
55347;BME280;41218;55.700;38.270;2023-03-14T18:42:03;99262.66;;;3.14;61.01
55347;BME280;41218;55.700;38.270;2023-03-14T18:47:03;99266.50;;;3.13;60.84
55347;BME280;41218;55.700;38.270;2023-03-14T18:52:04;99263.31;;;3.11;60.61
55347;BME280;41218;55.700;38.270;2023-03-14T18:57:05;99252.53;;;3.15;60.86
55347;BME280;41218;55.700;38.270;2023-03-14T19:02:08;99263.91;;;3.17;60.80
55347;BME280;41218;55.700;38.270;2023-03-14T19:07:08;99283.03;;;3.17;60.69
55347;BME280;41218;55.700;38.270;2023-03-14T19:12:09;99277.41;;;3.13;60.38
55347;BME280;41218;55.700;38.270;2023-03-14T19:17:09;99278.22;;;3.14;60.31
55347;BME280;41218;55.700;38.270;2023-03-14T19:22:10;99274.91;;;3.08;60.34
55347;BME280;41218;55.700;38.270;2023-03-14T19:27:11;99284.03;;;3.12;60.32
55347;BME280;41218;55.700;38.270;2023-03-14T19:32:11;99283.22;;;3.12;60.51
55347;BME280;41218;55.700;38.270;2023-03-14T19:37:13;99286.28;;;3.10;60.05
55347;BME280;41218;55.700;38.270;2023-03-14T19:42:13;99290.59;;;3.11;60.35
55347;BME280;41218;55.700;38.270;2023-03-14T19:47:14;99286.16;;;3.07;60.20
55347;BME280;41218;55.700;38.270;2023-03-14T19:52:14;99291.13;;;3.05;60.21
55347;BME280;41218;55.700;38.270;2023-03-14T19:57:18;99302.06;;;3.05;59.92
55347;BME280;41218;55.700;38.270;2023-03-14T20:02:18;99298.34;;;3.09;60.30
55347;BME280;41218;55.700;38.270;2023-03-14T20:07:19;99292.09;;;3.09;59.98
55347;BME280;41218;55.700;38.270;2023-03-14T20:12:20;99286.47;;;3.05;60.25
55347;BME280;41218;55.700;38.270;2023-03-14T20:17:21;99292.41;;;3.07;60.79
55347;BME280;41218;55.700;38.270;2023-03-14T20:22:21;99302.69;;;3.10;59.85
55347;BME280;41218;55.700;38.270;2023-03-14T20:27:22;99297.34;;;3.14;59.79
55347;BME280;41218;55.700;38.270;2023-03-14T20:32:23;99298.94;;;3.15;60.38
55347;BME280;41218;55.700;38.270;2023-03-14T20:37:23;99299.09;;;3.18;59.70
55347;BME280;41218;55.700;38.270;2023-03-14T20:42:24;99312.06;;;3.21;60.08
55347;BME280;41218;55.700;38.270;2023-03-14T20:47:26;99314.16;;;3.25;60.03
55347;BME280;41218;55.700;38.270;2023-03-14T20:52:27;99314.47;;;3.23;59.70
55347;BME280;41218;55.700;38.270;2023-03-14T20:57:27;99319.25;;;3.26;59.58
55347;BME280;41218;55.700;38.270;2023-03-14T21:02:28;99321.03;;;3.31;59.46
55347;BME280;41218;55.700;38.270;2023-03-14T21:07:29;99329.88;;;3.28;59.32
55347;BME280;41218;55.700;38.270;2023-03-14T21:12:32;99328.59;;;3.25;59.18
55347;BME280;41218;55.700;38.270;2023-03-14T21:17:33;99341.00;;;3.23;59.37
55347;BME280;41218;55.700;38.270;2023-03-14T21:22:33;99332.34;;;3.20;59.05
55347;BME280;41218;55.700;38.270;2023-03-14T21:27:37;99343.59;;;3.19;59.09
55347;BME280;41218;55.700;38.270;2023-03-14T21:32:37;99337.19;;;3.15;58.93
55347;BME280;41218;55.700;38.270;2023-03-14T21:37:38;99323.38;;;3.11;59.55
55347;BME280;41218;55.700;38.270;2023-03-14T21:42:38;99333.97;;;3.13;59.30
55347;BME280;41218;55.700;38.270;2023-03-14T21:47:39;99343.28;;;3.12;59.26
55347;BME280;41218;55.700;38.270;2023-03-14T21:52:42;99341.56;;;3.07;58.98
55347;BME280;41218;55.700;38.270;2023-03-14T21:57:46;99341.56;;;3.07;58.89
55347;BME280;41218;55.700;38.270;2023-03-14T22:02:49;99333.22;;;3.04;58.87
55347;BME280;41218;55.700;38.270;2023-03-14T22:07:52;99335.16;;;3.03;58.92
55347;BME280;41218;55.700;38.270;2023-03-14T22:12:52;99344.94;;;3.04;59.10
55347;BME280;41218;55.700;38.270;2023-03-14T22:17:55;99348.00;;;3.03;58.99
55347;BME280;41218;55.700;38.270;2023-03-14T22:22:55;99345.91;;;2.99;58.74
55347;BME280;41218;55.700;38.270;2023-03-14T22:27:56;99348.66;;;2.99;59.36
55347;BME280;41218;55.700;38.270;2023-03-14T22:32:56;99350.28;;;2.92;59.01
55347;BME280;41218;55.700;38.270;2023-03-14T22:37:57;99352.84;;;2.97;59.06
55347;BME280;41218;55.700;38.270;2023-03-14T22:42:57;99352.69;;;2.93;58.90
55347;BME280;41218;55.700;38.270;2023-03-14T22:47:58;99354.16;;;2.91;58.94
55347;BME280;41218;55.700;38.270;2023-03-14T22:52:58;99357.03;;;2.94;59.04
55347;BME280;41218;55.700;38.270;2023-03-14T22:57:59;99360.56;;;2.95;59.17
55347;BME280;41218;55.700;38.270;2023-03-14T23:03:00;99347.44;;;2.88;59.18
55347;BME280;41218;55.700;38.270;2023-03-14T23:08:00;99361.69;;;2.94;59.13
55347;BME280;41218;55.700;38.270;2023-03-14T23:13:01;99359.78;;;2.94;59.18
55347;BME280;41218;55.700;38.270;2023-03-14T23:18:04;99344.34;;;2.90;59.26
55347;BME280;41218;55.700;38.270;2023-03-14T23:23:05;99356.69;;;2.96;59.35
55347;BME280;41218;55.700;38.270;2023-03-14T23:28:12;99357.03;;;2.94;59.31
55347;BME280;41218;55.700;38.270;2023-03-14T23:33:13;99332.50;;;2.86;59.48
55347;BME280;41218;55.700;38.270;2023-03-14T23:38:14;99338.56;;;2.91;59.61
55347;BME280;41218;55.700;38.270;2023-03-14T23:43:14;99344.03;;;2.91;59.88
55347;BME280;41218;55.700;38.270;2023-03-14T23:48:15;99344.03;;;2.91;59.52
55347;BME280;41218;55.700;38.270;2023-03-14T23:53:15;99343.72;;;2.93;59.91
55347;BME280;41218;55.700;38.270;2023-03-14T23:58:16;99340.84;;;2.89;59.75
